Time;durP1;ratioP1;P1;durP2;ratioP2;P2;SDS_P1;SDS_P2;PMS_P1;PMS_P2;Temp;Humidity;BMP_temperature;BMP_pressure;BME280_temperature;BME280_humidity;BME280_pressure;Samples;Min_cycle;Max_cycle;Signal;HPM_P1;HPM_P2
2021/05/13 03:01:56;;;;;;;13.53;8.73;;;;;;;9.08;100.00;100185.34;1724184;78;65135;-71
2021/05/13 03:04:22;;;;;;;10.27;8.13;;;;;;;9.23;100.00;100191.88;1679438;83;21237;-73
2021/05/13 03:06:49;;;;;;;16.53;7.60;;;;;;;9.33;100.00;100191.16;1697379;83;21336;-74
2021/05/13 03:09:18;;;;;;;9.93;6.70;;;;;;;9.45;100.00;100190.23;1683238;83;21190;-68
2021/05/13 03:11:45;;;;;;;7.77;6.97;;;;;;;9.66;100.00;100189.05;1686679;83;21279;-73
2021/05/13 03:14:12;;;;;;;9.27;7.67;;;;;;;9.75;100.00;100178.05;1683774;83;21427;-73
2021/05/13 03:16:39;;;;;;;11.00;7.20;;;;;;;9.75;100.00;100178.05;1686226;83;21331;-74
2021/05/13 03:19:11;;;;;;;12.67;7.43;;;;;;;9.84;100.00;100176.97;1684970;83;22085;-74
2021/05/13 03:21:37;;;;;;;9.10;6.83;;;;;;;9.96;100.00;100179.92;1681818;84;22038;-72
2021/05/13 03:24:31;;;;;;;9.03;6.70;;;;;;;10.12;100.00;100173.73;1683445;83;21642;-75
2021/05/13 03:29:15;;;;;;;10.57;7.47;;;;;;;10.40;100.00;100173.38;1682331;83;21445;-68
2021/05/13 03:31:42;;;;;;;8.67;6.83;;;;;;;10.64;100.00;100165.70;1697123;83;21949;-74
2021/05/13 03:34:08;;;;;;;7.80;6.23;;;;;;;10.64;100.00;100165.70;1682969;83;21895;-75
2021/05/13 03:36:35;;;;;;;9.73;6.90;;;;;;;10.74;100.00;100170.62;1695919;83;21822;-74
2021/05/13 03:39:05;;;;;;;9.70;7.20;;;;;;;10.79;100.00;100164.34;1682741;83;21713;-74
2021/05/13 03:41:32;;;;;;;11.10;7.07;;;;;;;10.84;100.00;100156.78;1696505;83;22085;-74
2021/05/13 03:43:58;;;;;;;10.83;6.07;;;;;;;10.86;100.00;100154.78;1680601;83;21758;-75
2021/05/13 03:46:25;;;;;;;8.37;6.57;;;;;;;10.87;100.00;100155.59;1697436;83;21656;-75
2021/05/13 03:48:52;;;;;;;9.13;6.30;;;;;;;10.88;100.00;100159.83;1682527;83;21797;-75
2021/05/13 03:51:19;;;;;;;8.90;6.40;;;;;;;10.91;100.00;100147.70;1696202;84;22257;-74
2021/05/13 03:53:45;;;;;;;9.17;6.40;;;;;;;10.92;100.00;100145.42;1682037;83;21751;-68
2021/05/13 03:56:13;;;;;;;8.83;6.63;;;;;;;10.90;100.00;100153.41;1697214;83;21703;-73
2021/05/13 03:58:45;;;;;;;9.13;6.97;;;;;;;10.90;100.00;100153.41;1683037;84;21107;-76
2021/05/13 04:01:14;;;;;;;12.23;6.80;;;;;;;10.90;100.00;100157.33;1680032;84;22287;-76
2021/05/13 04:03:39;;;;;;;;;;;;;;;10.98;100.00;100155.59;1696826;82;21667;-68
2021/05/13 04:06:06;;;;;;;10.87;6.53;;;;;;;11.08;100.00;100164.70;1684727;84;21549;-74
2021/05/13 04:08:32;;;;;;;8.67;7.57;;;;;;;11.18;100.00;100163.89;1693828;82;21614;-69
2021/05/13 04:10:59;;;;;;;10.17;7.07;;;;;;;11.38;100.00;100165.84;1690323;84;21823;-75
2021/05/13 04:13:26;;;;;;;8.10;6.63;;;;;;;12.18;100.00;100167.09;1693709;83;22020;-73
2021/05/13 04:15:53;;;;;;;8.93;6.27;;;;;;;13.66;100.00;100178.31;1693384;83;20941;-73
2021/05/13 04:18:20;;;;;;;9.30;5.57;;;;;;;15.42;100.00;100171.19;1679392;84;21627;-76
2021/05/13 04:20:48;;;;;;;7.57;5.43;;;;;;;17.21;100.00;100166.77;1692989;82;21055;-76
2021/05/13 04:23:14;;;;;;;7.67;5.47;;;;;;;18.89;100.00;100153.45;1691398;84;21372;-75
2021/05/13 04:25:41;;;;;;;8.80;6.40;;;;;;;20.38;100.00;100138.42;1693625;83;20961;-77
2021/05/13 04:28:08;;;;;;;6.73;5.60;;;;;;;21.71;100.00;100127.47;1693688;83;21028;-76
2021/05/13 04:30:34;;;;;;;7.00;5.27;;;;;;;22.97;100.00;100114.64;1694382;84;21164;-72
2021/05/13 04:33:01;;;;;;;8.95;5.55;;;;;;;24.08;100.00;100109.17;1693907;83;20929;-76
2021/05/13 04:35:27;;;;;;;7.12;5.47;;;;;;;25.02;100.00;100117.77;1695262;84;21028;-77
2021/05/13 04:37:54;;;;;;;8.68;6.25;;;;;;;25.84;100.00;100122.22;1694346;83;21028;-73
2021/05/13 04:40:21;;;;;;;7.28;6.05;;;;;;;26.42;100.00;100119.22;1693393;82;22133;-77
2021/05/13 04:42:48;;;;;;;9.05;5.75;;;;;;;26.97;97.35;100119.91;1694247;84;21100;-78
2021/05/13 04:45:16;;;;;;;5.85;5.08;;;;;;;27.54;87.75;100121.25;1693881;82;21506;-77
2021/05/13 04:50:11;;;;;;;9.10;5.20;;;;;;;28.44;66.58;100124.66;1693527;83;21614;-78
2021/05/13 04:52:39;;;;;;;6.10;4.62;;;;;;;28.61;60.39;100124.77;1718948;82;21017;-77
2021/05/13 04:55:08;;;;;;;6.62;4.37;;;;;;;28.85;56.07;100118.50;1695117;82;21666;-78
2021/05/13 04:57:37;;;;;;;9.58;5.17;;;;;;;29.14;51.24;100113.22;1691699;84;21108;-78
2021/05/13 05:00:07;;;;;;;7.42;4.12;;;;;;;29.32;48.48;100106.80;1693706;82;21060;-77
2021/05/13 05:02:34;;;;;;;7.20;4.15;;;;;;;29.54;48.90;100107.77;1673398;84;20967;-72
2021/05/13 05:05:00;;;;;;;6.72;4.03;;;;;;;29.83;46.22;100102.41;1706891;82;21059;-77
2021/05/13 05:07:27;;;;;;;7.65;4.50;;;;;;;30.15;42.20;100095.18;1684421;83;21066;-77
2021/05/13 05:09:53;;;;;;;7.45;4.67;;;;;;;30.32;42.75;100091.72;1689680;83;20931;-70
2021/05/13 05:12:21;;;;;;;8.55;4.97;;;;;;;30.54;41.46;100092.08;1707127;82;20905;-79
2021/05/13 05:14:48;;;;;;;8.48;4.90;;;;;;;30.81;39.50;100092.25;1724199;81;22017;-77
2021/05/13 05:17:15;;;;;;;6.78;4.60;;;;;;;30.85;39.34;100091.05;1687567;83;21085;-76
2021/05/13 05:19:42;;;;;;;6.00;5.22;;;;;;;30.95;37.74;100088.80;1690480;83;21448;-76
2021/05/13 05:22:08;;;;;;;6.33;5.20;;;;;;;31.01;36.83;100090.73;1688907;83;20991;-76
2021/05/13 05:24:35;;;;;;;6.50;4.12;;;;;;;30.97;38.11;100084.42;1723745;81;21299;-78
2021/05/13 05:27:02;;;;;;;6.22;4.12;;;;;;;30.96;37.00;100086.89;1726906;80;21151;-75
2021/05/13 05:29:29;;;;;;;6.53;3.87;;;;;;;31.08;36.14;100084.85;1722267;81;21072;-75
2021/05/13 05:31:56;;;;;;;5.85;3.80;;;;;;;31.32;34.95;100081.57;1724037;81;21971;-73
2021/05/13 05:34:22;;;;;;;5.08;3.45;;;;;;;31.41;36.17;100084.45;1723931;81;21032;-70
2021/05/13 05:36:49;;;;;;;5.92;3.55;;;;;;;31.58;35.75;100078.70;1726729;81;21020;-76
2021/05/13 05:39:15;;;;;;;6.10;3.30;;;;;;;31.92;34.71;100080.37;1685896;83;21145;-76
2021/05/13 05:41:42;;;;;;;7.03;3.35;;;;;;;32.13;33.85;100075.73;1688106;83;20967;-73
2021/05/13 05:44:09;;;;;;;6.30;3.00;;;;;;;32.04;33.27;100073.67;1686260;84;21702;-75
2021/05/13 05:46:36;;;;;;;4.22;2.65;;;;;;;31.72;32.89;100078.67;1688472;83;20975;-78
2021/05/13 05:49:03;;;;;;;6.03;2.55;;;;;;;31.05;32.54;100090.31;1706883;82;21068;-74
2021/05/13 05:51:30;;;;;;;5.15;2.50;;;;;;;30.13;33.28;100097.41;1685206;83;21636;-75
2021/05/13 05:53:57;;;;;;;7.75;3.55;;;;;;;29.72;33.34;100084.45;1689242;83;20993;-72
2021/05/13 05:56:23;;;;;;;5.12;2.65;;;;;;;29.48;34.04;100088.34;1659357;84;21183;-71
2021/05/13 05:58:50;;;;;;;5.90;2.85;;;;;;;29.21;34.58;100089.40;1688557;83;21614;-76
2021/05/13 06:01:17;;;;;;;5.53;2.72;;;;;;;28.98;34.30;100082.51;1691187;83;21911;-76
2021/05/13 06:03:44;;;;;;;4.85;2.67;;;;;;;28.52;35.40;100082.34;1720253;81;21046;-76
2021/05/13 06:06:11;;;;;;;7.40;3.35;;;;;;;28.27;35.82;100083.75;1719815;81;20924;-72
2021/05/13 06:08:38;;;;;;;5.05;3.25;;;;;;;28.07;36.14;100080.99;1719208;83;21633;-71
2021/05/13 06:11:05;;;;;;;8.78;4.28;;;;;;;27.63;36.53;100084.63;1719648;81;20955;-76
2021/05/13 06:13:32;;;;;;;7.20;4.05;;;;;;;27.14;40.54;100078.14;1720193;81;21042;-75
2021/05/13 06:15:58;;;;;;;7.22;4.15;;;;;;;26.44;43.78;100083.10;1719654;81;21622;-73
2021/05/13 06:18:25;;;;;;;10.18;6.10;;;;;;;25.77;47.42;100088.37;1682586;83;21116;-77
2021/05/13 06:20:52;;;;;;;7.00;5.67;;;;;;;25.20;52.37;100085.61;1645481;86;21010;-77
2021/05/13 06:23:18;;;;;;;8.45;4.47;;;;;;;24.89;58.09;100092.57;1672432;83;21067;-79
2021/05/13 06:25:45;;;;;;;6.70;4.70;;;;;;;24.79;59.39;100095.88;1696267;84;20984;-78
2021/05/13 06:28:11;;;;;;;6.60;4.80;;;;;;;24.73;61.71;100105.77;1696196;83;21011;-77
2021/05/13 06:30:39;;;;;;;8.13;4.97;;;;;;;24.80;62.41;100109.45;1696749;84;21709;-76
2021/05/13 06:33:05;;;;;;;6.80;4.72;;;;;;;24.93;62.77;100106.92;1696149;83;22479;-77
2021/05/13 06:35:34;;;;;;;6.37;4.72;;;;;;;25.15;64.09;100110.98;1694745;84;21146;-77
2021/05/13 06:38:01;;;;;;;5.75;3.98;;;;;;;25.64;59.17;100113.34;1696712;84;21011;-75
2021/05/13 06:40:28;;;;;;;6.95;4.30;;;;;;;25.95;54.17;100112.44;1682400;83;21562;-77
2021/05/13 06:42:54;;;;;;;5.60;4.00;;;;;;;26.19;51.05;100116.36;1697453;83;21080;-72
2021/05/13 06:45:21;;;;;;;6.97;4.08;;;;;;;26.32;48.22;100115.36;1680221;83;21134;-77
2021/05/13 06:47:48;;;;;;;11.18;4.67;;;;;;;26.46;47.94;100119.45;1694098;83;21509;-70
2021/05/13 06:50:15;;;;;;;8.05;4.05;;;;;;;26.59;48.27;100121.36;1682524;83;21362;-74
2021/05/13 06:52:42;;;;;;;9.70;4.37;;;;;;;26.51;50.87;100131.39;1690634;83;21628;-75
2021/05/13 06:55:09;;;;;;;6.22;3.70;;;;;;;26.48;48.38;100125.29;1694241;83;20937;-74
2021/05/13 06:57:36;;;;;;;7.45;3.58;;;;;;;26.51;49.01;100120.16;1683244;83;23428;-75
2021/05/13 07:00:04;;;;;;;8.78;3.87;;;;;;;26.64;46.78;100111.94;1684341;83;21144;-68
2021/05/13 07:02:32;;;;;;;6.67;3.77;;;;;;;26.72;42.54;100117.95;1689089;83;21104;-73
2021/05/13 07:04:59;;;;;;;5.30;3.75;;;;;;;26.69;42.22;100123.88;1691765;83;20985;-74
2021/05/13 07:07:27;;;;;;;6.20;3.30;;;;;;;26.79;39.83;100119.70;1701791;82;21458;-74
2021/05/13 07:09:55;;;;;;;6.83;3.65;;;;;;;26.90;42.65;100121.11;1739949;81;21071;-72
2021/05/13 07:12:22;;;;;;;7.37;3.40;;;;;;;27.41;40.52;100114.80;1738233;81;20917;-76
2021/05/13 07:14:48;;;;;;;5.75;3.05;;;;;;;27.88;39.09;100118.66;1699736;83;20974;-76
2021/05/13 07:17:15;;;;;;;4.97;2.58;;;;;;;27.61;36.87;100115.47;1690531;83;22009;-73
2021/05/13 07:19:41;;;;;;;6.12;3.17;;;;;;;27.18;35.98;100119.03;1705259;82;21064;-77
2021/05/13 07:22:08;;;;;;;6.67;3.12;;;;;;;26.66;36.13;100123.12;1693531;83;21116;-72
2021/05/13 07:24:34;;;;;;;5.05;2.95;;;;;;;26.59;37.89;100130.72;1695918;84;21991;-76
2021/05/13 07:27:01;;;;;;;4.47;3.10;;;;;;;27.06;38.04;100126.17;1695739;83;20982;-75
2021/05/13 07:29:28;;;;;;;4.72;2.83;;;;;;;27.74;37.54;100121.39;1707117;82;20993;-76
2021/05/13 07:31:54;;;;;;;4.33;3.00;;;;;;;28.35;34.67;100113.30;1699414;83;21084;-77
2021/05/13 07:34:21;;;;;;;5.83;3.75;;;;;;;28.14;33.99;100118.88;1695958;83;21967;-77
2021/05/13 07:36:48;;;;;;;6.10;2.52;;;;;;;27.61;35.86;100115.47;1698285;83;21555;-74
2021/05/13 07:39:16;;;;;;;5.97;3.15;;;;;;;27.66;37.65;100111.36;1703227;84;21614;-77
2021/05/13 07:41:42;;;;;;;4.67;3.05;;;;;;;27.63;34.99;100114.64;1700228;83;20981;-74
2021/05/13 07:44:09;;;;;;;5.65;2.95;;;;;;;27.09;35.83;100118.91;1692700;83;21042;-70
2021/05/13 07:46:41;;;;;;;8.88;3.33;;;;;;;26.63;37.37;100121.03;1704783;82;21123;-76
2021/05/13 07:49:08;;;;;;;5.30;2.98;;;;;;;26.47;37.37;100117.81;1696785;83;21579;-74
2021/05/13 07:51:35;;;;;;;5.85;3.83;;;;;;;26.27;37.51;100116.23;1690131;83;21038;-69
2021/05/13 07:54:03;;;;;;;5.95;3.25;;;;;;;25.77;37.97;100113.19;1683022;84;21453;-73
2021/05/13 07:56:30;;;;;;;9.95;3.17;;;;;;;25.54;39.43;100115.36;1703129;82;21057;-74
2021/05/13 07:58:56;;;;;;;5.22;2.80;;;;;;;25.36;40.51;100116.36;1702104;83;21742;-73
2021/05/13 08:01:22;;;;;;;4.92;3.60;;;;;;;25.41;43.45;100120.83;1739058;81;20934;-75
2021/05/13 08:03:49;;;;;;;8.00;3.42;;;;;;;25.73;41.45;100113.52;1696281;82;20932;-76
2021/05/13 08:06:16;;;;;;;4.92;2.90;;;;;;;25.89;41.48;100120.26;1680863;84;20997;-78
2021/05/13 08:08:42;;;;;;;4.90;3.10;;;;;;;26.12;40.77;100111.13;1694167;82;21011;-75
2021/05/13 08:11:09;;;;;;;8.23;3.00;;;;;;;26.40;39.10;100116.84;1680701;84;21025;-77
2021/05/13 08:13:36;;;;;;;5.55;3.00;;;;;;;26.43;38.32;100113.56;1693452;82;20976;-78
2021/05/13 08:16:04;;;;;;;9.53;3.05;;;;;;;26.60;38.96;100113.06;1691802;84;21139;-73
2021/05/13 08:18:30;;;;;;;5.30;3.20;;;;;;;27.10;38.19;100110.56;1667125;83;21059;-76
2021/05/13 08:20:57;;;;;;;5.58;3.25;;;;;;;27.47;38.75;100120.86;1694522;82;21088;-75
2021/05/13 08:23:24;;;;;;;5.90;3.33;;;;;;;27.19;36.46;100115.25;1692084;82;21505;-78
2021/05/13 08:25:51;;;;;;;7.45;2.98;;;;;;;26.60;36.38;100118.96;1693383;82;21039;-78
2021/05/13 08:28:17;;;;;;;7.58;2.87;;;;;;;26.06;37.90;100116.28;1679745;84;21088;-78
2021/05/13 08:30:43;;;;;;;5.28;3.35;;;;;;;25.92;38.24;100118.34;1694566;82;21020;-76
2021/05/13 08:33:10;;;;;;;12.05;5.83;;;;;;;25.99;39.10;100122.52;1693262;84;21032;-78
2021/05/13 08:35:36;;;;;;;6.85;3.33;;;;;;;25.61;39.03;100121.94;1722922;81;22126;-79
2021/05/13 08:38:04;;;;;;;7.93;3.17;;;;;;;25.03;40.80;100118.55;1697872;82;20973;-69
2021/05/13 08:40:31;;;;;;;6.33;3.17;;;;;;;24.59;41.71;100122.17;1683923;84;21941;-77
2021/05/13 08:42:57;;;;;;;6.47;2.70;;;;;;;24.10;42.67;100127.02;1694506;82;21016;-76
2021/05/13 08:45:24;;;;;;;4.73;3.13;;;;;;;23.62;44.54;100115.52;1694282;82;20912;-77
2021/05/13 08:47:52;;;;;;;5.77;2.43;;;;;;;23.69;46.08;100113.92;1692888;84;21244;-78
2021/05/13 08:50:19;;;;;;;6.93;2.70;;;;;;;23.93;46.94;100118.84;1689963;84;21044;-79
2021/05/13 08:52:46;;;;;;;6.97;2.70;;;;;;;24.14;45.51;100120.06;1692476;84;21526;-76
2021/05/13 08:55:15;;;;;;;5.47;2.80;;;;;;;24.32;44.77;100127.41;1687924;84;21479;-77
2021/05/13 08:57:42;;;;;;;4.97;2.60;;;;;;;24.41;44.60;100115.11;1694422;82;21110;-77
2021/05/13 09:00:09;;;;;;;5.10;2.40;;;;;;;24.57;45.55;100118.98;1679436;84;21089;-70
2021/05/13 09:02:36;;;;;;;7.47;2.70;;;;;;;24.70;45.38;100116.48;1694074;82;20952;-77
2021/05/13 09:05:04;;;;;;;4.70;2.30;;;;;;;24.76;44.38;100118.00;1728612;81;21547;-77
2021/05/13 09:07:32;;;;;;;9.03;3.33;;;;;;;24.89;44.47;100119.75;1691483;83;21624;-78
2021/05/13 09:10:12;;;;;;;5.63;2.80;;;;;;;25.27;42.84;100120.74;1712417;82;21017;-68
2021/05/13 09:12:49;;;;;;;6.53;3.07;;;;;;;25.67;41.92;100115.98;1714582;82;21515;-78
2021/05/13 09:15:20;;;;;;;6.20;3.03;;;;;;;26.36;41.42;100115.81;1689797;83;21048;-78
2021/05/13 09:18:00;;;;;;;5.43;2.60;;;;;;;26.93;39.00;100113.02;1712473;83;20965;-70
2021/05/13 09:20:39;;;;;;;4.35;2.60;;;;;;;26.89;37.39;100114.15;1711248;83;21342;-77
2021/05/13 09:23:26;;;;;;;4.27;2.40;;;;;;;26.53;37.28;100124.68;1693483;83;21055;-76
2021/05/13 09:26:11;;;;;;;4.63;2.33;;;;;;;26.49;39.47;100124.22;1710061;83;21537;-76
2021/05/13 09:28:40;;;;;;;4.63;2.27;;;;;;;26.39;38.90;100119.80;1711310;82;21060;-76
2021/05/13 09:31:07;;;;;;;3.33;2.10;;;;;;;25.97;39.08;100118.81;1709568;82;21040;-76
2021/05/13 09:33:38;;;;;;;5.17;2.47;;;;;;;25.74;38.72;100119.09;1690719;83;21016;-78
2021/05/13 09:36:23;;;;;;;6.93;2.10;;;;;;;25.52;39.20;100120.97;1712733;82;21017;-79
2021/05/13 09:38:49;;;;;;;4.73;2.17;;;;;;;25.35;41.75;100116.11;1688958;83;21554;-69
2021/05/13 09:41:38;;;;;;;5.73;2.60;;;;;;;25.26;45.50;100117.01;1710995;82;21040;-77
2021/05/13 09:44:10;;;;;;;4.90;2.23;;;;;;;25.49;44.33;100112.19;1711346;82;21037;-78
2021/05/13 09:46:37;;;;;;;4.47;2.47;;;;;;;25.77;42.67;100110.52;1708689;82;21049;-74
2021/05/13 09:49:04;;;;;;;5.00;2.53;;;;;;;25.96;41.24;100109.22;1691752;83;21044;-78
2021/05/13 09:51:37;;;;;;;4.33;2.30;;;;;;;25.94;41.69;100118.05;1711908;82;21088;-79
2021/05/13 09:54:15;;;;;;;3.93;2.20;;;;;;;25.67;42.25;100114.65;1690289;83;20942;-77
2021/05/13 09:56:50;;;;;;;4.60;2.50;;;;;;;25.37;42.51;100122.48;1710645;82;21052;-78
2021/05/13 09:59:30;;;;;;;5.67;2.30;;;;;;;25.01;42.40;100110.84;1693716;83;20996;-77
2021/05/13 10:02:06;;;;;;;6.62;2.02;;;;;;;24.94;45.44;100109.84;1711394;82;21069;-70
2021/05/13 10:04:32;;;;;;;3.30;2.07;;;;;;;25.10;43.99;100109.17;1696448;83;21326;-78
2021/05/13 10:07:01;;;;;;;4.07;2.23;;;;;;;25.07;46.16;100111.03;1695033;83;20957;-77
2021/05/13 10:09:27;;;;;;;5.33;2.23;;;;;;;25.38;43.89;100096.88;1685165;84;20969;-79
2021/05/13 10:11:57;;;;;;;4.23;2.00;;;;;;;25.84;42.76;100107.53;1742505;81;21637;-75
2021/05/13 10:14:27;;;;;;;2.83;1.70;;;;;;;25.97;42.56;100104.13;1700412;83;21522;-79
2021/05/13 10:17:03;;;;;;;4.70;2.10;;;;;;;26.17;43.56;100103.81;1699014;83;21108;-75
2021/05/13 10:19:37;;;;;;;3.93;2.30;;;;;;;26.53;42.32;100113.20;1684476;84;20999;-76
2021/05/13 10:22:04;;;;;;;5.13;2.70;;;;;;;26.55;39.63;100107.00;1740398;81;21147;-80
2021/05/13 10:24:31;;;;;;;2.97;2.10;;;;;;;26.21;39.01;100108.03;1652207;84;21140;-78
2021/05/13 10:26:57;;;;;;;4.50;2.50;;;;;;;25.80;40.12;100112.65;1695978;83;21598;-75
2021/05/13 10:29:29;;;;;;;3.67;2.43;;;;;;;25.56;41.96;100109.18;1657154;84;21109;-69
2021/05/13 10:32:20;;;;;;;6.80;2.50;;;;;;;25.65;41.94;100102.94;1704356;82;22538;-78
2021/05/13 10:34:57;;;;;;;5.50;2.47;;;;;;;25.85;40.89;100103.22;1723436;81;21446;-78
2021/05/13 10:37:43;;;;;;;4.90;2.43;;;;;;;25.90;40.73;100103.14;1685504;83;20957;-70
2021/05/13 10:40:22;;;;;;;5.13;2.23;;;;;;;25.71;40.24;100107.11;1682017;83;21081;-77
2021/05/13 10:42:44;;;;;;;6.17;2.47;;;;;;;25.32;42.68;100103.88;1703001;83;21135;-70
2021/05/13 10:45:29;;;;;;;5.07;2.60;;;;;;;24.83;42.66;100103.02;1705412;82;20989;-74
2021/05/13 10:48:28;;;;;;;4.53;2.50;;;;;;;24.14;43.88;100105.42;1704682;82;21077;-78
2021/05/13 10:51:06;;;;;;;6.07;2.30;;;;;;;23.46;46.44;100101.48;1724910;81;21490;-77
2021/05/13 10:53:45;;;;;;;4.87;2.53;;;;;;;23.13;50.17;100109.55;1687614;83;21172;-77
2021/05/13 10:56:35;;;;;;;4.43;2.13;;;;;;;22.97;54.12;100104.02;1705628;82;22745;-76
2021/05/13 10:59:11;;;;;;;5.70;2.57;;;;;;;23.00;54.30;100097.63;1723810;81;21071;-78
2021/05/13 11:01:53;;;;;;;5.60;2.40;;;;;;;23.26;53.71;100104.19;1684996;83;21088;-68
2021/05/13 11:04:29;;;;;;;4.07;2.30;;;;;;;23.45;54.55;100091.91;1680403;83;21582;-77
2021/05/13 11:07:04;;;;;;;6.10;2.03;;;;;;;23.59;52.32;100088.65;1659336;85;21567;-74
2021/05/13 11:09:46;;;;;;;3.20;2.10;;;;;;;23.80;52.72;100091.51;1715074;82;21087;-75
2021/05/13 11:12:15;;;;;;;4.90;2.50;;;;;;;23.98;50.74;100083.39;1675505;84;20946;-75
2021/05/13 11:15:16;;;;;;;4.47;2.03;;;;;;;24.03;50.08;100084.17;1669615;84;21203;-77
2021/05/13 11:20:23;;;;;;;5.20;3.30;;;;;;;23.84;53.54;100075.25;1716558;82;20934;-77
2021/05/13 11:23:09;;;;;;;6.00;2.83;;;;;;;23.87;53.80;100068.59;1675337;84;21144;-77
2021/05/13 11:25:49;;;;;;;4.97;2.37;;;;;;;23.89;54.72;100068.55;1677482;84;21030;-78
2021/05/13 11:28:36;;;;;;;6.23;2.70;;;;;;;24.06;53.06;100071.39;1716105;82;21058;-74
2021/05/13 11:31:13;;;;;;;6.60;2.80;;;;;;;24.29;53.44;100065.36;1672278;84;20966;-76
2021/05/13 11:33:57;;;;;;;5.57;2.50;;;;;;;24.47;48.65;100067.37;1676469;84;21423;-69
2021/05/13 11:36:30;;;;;;;4.17;2.37;;;;;;;24.51;47.07;100069.73;1677893;83;21057;-75
2021/05/13 11:39:09;;;;;;;4.50;2.60;;;;;;;24.72;47.40;100066.87;1677466;84;21618;-78
2021/05/13 11:41:35;;;;;;;4.20;2.30;;;;;;;24.91;46.37;100070.95;1676641;84;21033;-76
2021/05/13 11:44:02;;;;;;;5.80;2.50;;;;;;;24.96;45.91;100059.70;1674181;84;21651;-77
2021/05/13 11:46:29;;;;;;;8.80;2.70;;;;;;;25.21;45.69;100066.64;1661773;86;21160;-78
2021/05/13 11:48:57;;;;;;;8.00;3.60;;;;;;;25.53;43.48;100061.70;1716900;82;21144;-78
2021/05/13 11:51:34;;;;;;;4.07;2.93;;;;;;;25.68;42.22;100059.65;1677180;84;20949;-71
2021/05/13 11:54:03;;;;;;;6.53;2.53;;;;;;;25.90;42.76;100056.95;1673027;84;21166;-79
2021/05/13 11:56:34;;;;;;;4.23;2.30;;;;;;;26.31;41.47;100041.08;1645714;86;21125;-77
2021/05/13 11:59:02;;;;;;;5.00;3.00;;;;;;;26.69;41.06;100038.31;1678355;83;21017;-77
2021/05/13 12:01:41;;;;;;;8.07;2.90;;;;;;;26.88;41.87;100048.38;1689679;83;21171;-76
2021/05/13 12:04:22;;;;;;;6.37;3.17;;;;;;;26.96;41.46;100050.91;1678853;84;21712;-78
2021/05/13 12:07:01;;;;;;;6.37;3.00;;;;;;;26.80;41.49;100050.41;1674772;84;21217;-72
2021/05/13 12:09:30;;;;;;;9.27;2.40;;;;;;;26.49;40.89;100044.03;1657007;86;21661;-78
2021/05/13 12:11:57;;;;;;;5.20;2.83;;;;;;;26.33;42.66;100049.61;1709332;82;21053;-78
2021/05/13 12:14:27;;;;;;;6.53;2.90;;;;;;;26.15;40.85;100042.42;1672804;84;21089;-79
2021/05/13 12:17:01;;;;;;;4.80;2.72;;;;;;;26.05;40.74;100046.58;1686535;83;21084;-78
2021/05/13 12:19:29;;;;;;;5.17;3.10;;;;;;;26.18;41.28;100041.84;1686257;83;21013;-78
2021/05/13 12:21:59;;;;;;;5.57;2.90;;;;;;;26.14;41.88;100043.52;1685859;83;21013;-70
2021/05/13 12:24:33;;;;;;;5.87;3.27;;;;;;;25.95;44.02;100045.67;1670213;84;21587;-77
2021/05/13 12:26:59;;;;;;;5.97;2.63;;;;;;;25.90;44.25;100045.73;1671080;84;22497;-76
2021/05/13 12:29:26;;;;;;;6.83;3.43;;;;;;;25.84;43.89;100041.56;1661389;86;21016;-77
2021/05/13 12:31:53;;;;;;;6.77;3.10;;;;;;;25.74;43.53;100032.33;1712462;82;21127;-70
2021/05/13 12:34:39;;;;;;;5.40;2.53;;;;;;;25.79;45.63;100029.60;1670599;84;21089;-71
2021/05/13 12:37:07;;;;;;;5.17;2.93;;;;;;;25.94;44.72;100028.03;1649226;86;21124;-79
2021/05/13 12:39:37;;;;;;;3.90;2.50;;;;;;;26.04;43.92;100022.30;1677731;84;21949;-70
2021/05/13 12:42:25;;;;;;;5.37;2.57;;;;;;;26.01;44.86;100022.88;1681962;84;21122;-81
2021/05/13 12:45:11;;;;;;;6.03;2.97;;;;;;;26.12;44.94;100017.63;1715356;82;20994;-78
2021/05/13 12:47:37;;;;;;;6.23;2.77;;;;;;;26.38;44.41;100016.11;1662885;84;21226;-75
2021/05/13 12:50:06;;;;;;;4.97;3.10;;;;;;;26.29;45.10;100021.07;1678257;83;21117;-73
2021/05/13 12:52:32;;;;;;;8.13;3.23;;;;;;;26.08;43.99;100024.64;1679296;83;21680;-76
2021/05/13 12:55:15;;;;;;;5.73;2.63;;;;;;;25.92;44.41;100022.75;1677811;84;21002;-77
2021/05/13 12:57:45;;;;;;;6.43;2.97;;;;;;;25.58;44.62;100026.41;1675273;84;21160;-79
2021/05/13 13:00:15;;;;;;;6.78;3.45;;;;;;;25.23;47.18;100025.02;1665525;86;21523;-79
2021/05/13 13:02:42;;;;;;;7.63;3.53;;;;;;;25.11;46.17;100015.27;1713589;82;21069;-75
2021/05/13 13:05:11;;;;;;;4.97;2.90;;;;;;;25.13;49.56;100015.80;1676153;84;22122;-75
2021/05/13 13:07:44;;;;;;;4.70;3.37;;;;;;;25.11;49.89;100023.28;1673613;84;21164;-80
2021/05/13 13:10:33;;;;;;;5.70;3.40;;;;;;;25.01;48.57;100026.84;1677110;85;21001;-76
2021/05/13 13:13:22;;;;;;;10.67;4.17;;;;;;;24.87;49.46;100021.93;1677424;84;21103;-73
2021/05/13 13:15:48;;;;;;;6.83;4.43;;;;;;;24.89;50.67;100023.77;1672627;84;21109;-78
2021/05/13 13:18:17;;;;;;;5.90;2.70;;;;;;;24.88;50.34;100016.30;1663785;86;21144;-78
2021/05/13 13:20:44;;;;;;;5.07;3.30;;;;;;;24.87;49.16;100012.60;1715610;82;21144;-69
2021/05/13 13:23:30;;;;;;;7.10;3.63;;;;;;;24.93;52.10;100005.59;1678584;84;21057;-76
2021/05/13 13:26:03;;;;;;;4.80;3.27;;;;;;;25.05;50.65;99999.86;1675204;84;20991;-77
2021/05/13 13:28:31;;;;;;;5.73;3.23;;;;;;;25.13;48.39;99997.12;1675917;84;21924;-74
2021/05/13 13:31:03;;;;;;;6.77;4.63;;;;;;;25.18;50.25;99995.72;1665302;86;21553;-77
2021/05/13 13:33:28;;;;;;;6.40;3.27;;;;;;;25.19;51.08;100002.64;1715311;82;20981;-78
2021/05/13 13:35:57;;;;;;;6.50;3.67;;;;;;;25.33;48.93;100006.73;1678111;84;21077;-75
2021/05/13 13:38:24;;;;;;;5.93;3.13;;;;;;;25.44;46.09;100003.64;1681274;84;21414;-70
2021/05/13 13:40:54;;;;;;;7.30;3.60;;;;;;;25.51;45.54;100001.17;1714706;82;21523;-76
2021/05/13 13:43:26;;;;;;;9.70;3.40;;;;;;;25.50;45.22;100003.59;1675284;84;21050;-77
2021/05/13 13:45:52;;;;;;;5.00;2.97;;;;;;;25.47;46.33;100007.62;1687513;83;21062;-78
2021/05/13 13:48:20;;;;;;;5.87;3.10;;;;;;;25.39;45.87;100005.05;1690509;83;21499;-78
2021/05/13 13:50:52;;;;;;;6.87;3.40;;;;;;;25.38;43.41;100010.15;1677731;84;20997;-77
2021/05/13 13:53:21;;;;;;;6.47;3.87;;;;;;;25.43;44.14;100008.73;1676914;84;20997;-77
2021/05/13 13:55:49;;;;;;;6.17;3.63;;;;;;;25.61;43.50;100010.34;1662584;86;21468;-75
2021/05/13 13:58:16;;;;;;;5.53;3.60;;;;;;;25.75;44.51;100006.42;1679259;83;21092;-74
2021/05/13 14:00:43;;;;;;;6.83;4.03;;;;;;;25.74;46.77;100005.63;1673277;84;21085;-78
2021/05/13 14:03:10;;;;;;;5.17;3.20;;;;;;;25.57;47.32;100006.16;1672744;84;21606;-75
2021/05/13 14:05:37;;;;;;;8.97;3.60;;;;;;;25.28;48.00;99998.81;1667254;84;20994;-70
2021/05/13 14:08:04;;;;;;;5.70;3.57;;;;;;;25.08;50.21;100003.81;1681048;85;22527;-76
2021/05/13 14:10:31;;;;;;;8.80;3.30;;;;;;;24.83;49.87;100001.70;1679446;85;21036;-76
2021/05/13 14:12:58;;;;;;;8.63;3.13;;;;;;;24.68;51.47;99999.20;1681340;85;21152;-77
2021/05/13 14:15:25;;;;;;;4.77;2.60;;;;;;;24.66;52.86;100002.68;1681915;85;21103;-77
2021/05/13 14:17:53;;;;;;;8.77;3.43;;;;;;;24.67;53.76;100001.62;1681399;84;20973;-79
2021/05/13 14:20:21;;;;;;;5.10;2.83;;;;;;;24.68;52.77;100007.20;1658698;85;21099;-70
2021/05/13 14:22:49;;;;;;;8.20;2.93;;;;;;;24.57;52.91;100004.39;1683339;83;21417;-79
2021/05/13 14:25:15;;;;;;;5.43;2.90;;;;;;;24.39;53.83;100004.01;1683512;83;21112;-76
2021/05/13 14:27:42;;;;;;;4.27;2.70;;;;;;;24.25;55.07;99999.86;1670296;85;21599;-74
2021/05/13 14:30:11;;;;;;;5.73;2.80;;;;;;;24.20;56.02;100000.42;1681400;85;21183;-76
2021/05/13 14:32:37;;;;;;;8.27;2.93;;;;;;;24.12;54.55;100001.03;1652984;85;21199;-75
2021/05/13 14:35:05;;;;;;;9.63;3.33;;;;;;;24.07;53.12;99999.20;1679884;84;21442;-74
2021/05/13 14:37:32;;;;;;;8.07;3.70;;;;;;;24.09;51.86;99998.92;1681372;85;21112;-70
2021/05/13 14:39:59;;;;;;;10.60;4.30;;;;;;;24.11;52.00;99999.45;1674399;85;21016;-77
2021/05/13 14:42:28;;;;;;;7.87;3.77;;;;;;;24.09;52.71;100000.25;1680726;83;21028;-75
2021/05/13 14:44:57;;;;;;;5.13;3.03;;;;;;;24.02;52.67;99996.59;1662291;85;22154;-78